createdAt,value
2023-05-03T00:01:11.456Z,2.40
2023-05-03T00:03:38.330Z,2.08
2023-05-03T00:06:13.267Z,2.10
2023-05-03T00:08:41.628Z,2.00
2023-05-03T00:11:09.653Z,2.00
2023-05-03T00:13:37.321Z,2.08
2023-05-03T00:16:04.625Z,2.17
2023-05-03T00:18:32.120Z,2.10
2023-05-03T00:20:59.731Z,2.08
2023-05-03T00:23:28.348Z,2.25
2023-05-03T00:25:56.862Z,2.10
2023-05-03T00:28:24.970Z,2.30
2023-05-03T00:30:52.834Z,2.00
2023-05-03T00:33:19.835Z,2.05
2023-05-03T00:35:46.802Z,2.20
2023-05-03T00:38:16.696Z,2.50
2023-05-03T00:40:43.644Z,2.25
2023-05-03T00:43:13.915Z,2.25
2023-05-03T00:45:42.022Z,2.63
2023-05-03T00:48:09.155Z,2.40
2023-05-03T00:50:37.129Z,1.98
2023-05-03T00:53:04.918Z,2.50
2023-05-03T00:55:33.472Z,2.28
2023-05-03T00:58:00.484Z,2.03
2023-05-03T01:00:27.548Z,2.40
2023-05-03T01:02:54.705Z,2.35
2023-05-03T01:05:23.047Z,2.60
2023-05-03T01:07:49.893Z,2.15
2023-05-03T01:10:48.762Z,2.47
2023-05-03T01:13:18.340Z,2.25
2023-05-03T01:16:05.847Z,2.08
2023-05-03T01:18:41.878Z,2.25
2023-05-03T01:21:10.677Z,2.30
2023-05-03T01:23:46.394Z,2.10
2023-05-03T01:26:23.540Z,2.63
2023-05-03T01:28:51.572Z,2.28
2023-05-03T01:31:24.031Z,2.53
2023-05-03T01:34:10.997Z,2.35
2023-05-03T01:36:42.789Z,2.60
2023-05-03T01:39:16.395Z,2.65
2023-05-03T01:41:43.635Z,2.33
2023-05-03T01:44:12.198Z,2.22
2023-05-03T01:46:44.517Z,2.05
2023-05-03T01:49:12.009Z,3.08
2023-05-03T01:51:39.338Z,2.25
2023-05-03T01:54:06.291Z,2.22
2023-05-03T01:56:35.430Z,1.80
2023-05-03T01:59:03.654Z,2.42
2023-05-03T02:01:30.958Z,2.40
2023-05-03T02:03:57.913Z,2.13
2023-05-03T02:06:26.324Z,2.30
2023-05-03T02:08:54.414Z,2.30
2023-05-03T02:11:21.733Z,2.47
2023-05-03T02:14:09.377Z,2.28
2023-05-03T02:16:36.448Z,2.50
2023-05-03T02:19:05.518Z,2.35
2023-05-03T02:21:35.659Z,2.17
2023-05-03T02:24:03.793Z,2.30
2023-05-03T02:26:30.894Z,2.40
2023-05-03T02:28:58.233Z,2.20
2023-05-03T02:31:28.483Z,2.75
2023-05-03T02:33:58.067Z,2.10
2023-05-03T02:36:25.412Z,2.53
2023-05-03T02:38:53.171Z,1.90
2023-05-03T02:41:20.173Z,2.30
2023-05-03T02:43:48.196Z,1.83
2023-05-03T02:46:15.299Z,2.38
2023-05-03T02:48:42.358Z,2.35
2023-05-03T02:51:09.458Z,2.20
2023-05-03T02:53:36.677Z,2.03
2023-05-03T02:56:04.298Z,2.50
2023-05-03T02:58:31.392Z,2.22
2023-05-03T03:00:59.947Z,2.20
2023-05-03T03:03:30.028Z,1.95
2023-05-03T03:05:57.177Z,2.20
2023-05-03T03:08:24.301Z,1.90
2023-05-03T03:10:52.256Z,2.20
2023-05-03T03:13:19.497Z,2.38
2023-05-03T03:15:46.541Z,2.25
2023-05-03T03:18:13.720Z,2.20
2023-05-03T03:20:42.800Z,2.97
2023-05-03T03:23:12.536Z,2.35
2023-05-03T03:25:39.623Z,2.60
2023-05-03T03:28:06.827Z,2.50
2023-05-03T03:30:35.250Z,2.67
2023-05-03T03:33:14.093Z,2.53
2023-05-03T03:35:42.279Z,2.45
2023-05-03T03:38:10.732Z,2.10
2023-05-03T03:40:44.103Z,2.30
2023-05-03T03:43:11.551Z,2.60
2023-05-03T03:45:38.588Z,2.78
2023-05-03T03:48:06.560Z,2.38
2023-05-03T03:50:34.226Z,2.75
2023-05-03T03:53:01.664Z,2.30
2023-05-03T03:55:29.127Z,2.53
2023-05-03T03:57:58.015Z,2.90
2023-05-03T04:00:26.466Z,2.60
2023-05-03T04:03:07.255Z,2.95
2023-05-03T04:05:35.151Z,2.70
2023-05-03T04:08:02.512Z,2.80
2023-05-03T04:10:31.828Z,2.40
2023-05-03T04:12:59.259Z,2.85
2023-05-03T04:15:27.418Z,3.22
2023-05-03T04:17:57.850Z,2.90
2023-05-03T04:20:25.452Z,2.92
2023-05-03T04:22:53.656Z,2.88
2023-05-03T04:25:25.719Z,2.60
2023-05-03T04:28:00.028Z,2.78
2023-05-03T04:30:29.534Z,2.95
2023-05-03T04:33:00.927Z,2.63
2023-05-03T04:35:30.417Z,2.95
2023-05-03T04:37:59.616Z,2.78
2023-05-03T04:40:28.358Z,2.90
2023-05-03T04:43:02.893Z,2.40
2023-05-03T04:45:34.149Z,3.10
2023-05-03T04:48:02.735Z,3.00
2023-05-03T04:50:29.772Z,2.92
2023-05-03T04:52:56.671Z,3.35
2023-05-03T04:55:25.767Z,2.92
2023-05-03T04:57:55.616Z,2.92
2023-05-03T05:00:23.683Z,2.80
2023-05-03T05:02:58.975Z,3.70
2023-05-03T05:05:29.025Z,2.53
2023-05-03T05:07:58.285Z,2.92
2023-05-03T05:10:26.701Z,4.93
2023-05-03T05:12:55.743Z,4.05
2023-05-03T05:15:23.542Z,3.38
2023-05-03T05:17:50.987Z,3.10
2023-05-03T05:20:19.919Z,3.35
2023-05-03T05:22:49.725Z,3.20
2023-05-03T05:25:17.084Z,3.20
2023-05-03T05:27:44.317Z,3.28
2023-05-03T05:30:11.619Z,2.80
2023-05-03T05:32:41.135Z,3.20
2023-05-03T05:35:11.051Z,3.28
2023-05-03T05:37:38.554Z,3.30
2023-05-03T05:40:07.908Z,11.50
2023-05-03T05:42:41.261Z,3.63
2023-05-03T05:45:08.912Z,4.10
2023-05-03T05:47:37.980Z,3.13
2023-05-03T05:50:16.752Z,2.80
2023-05-03T05:52:47.982Z,3.17
2023-05-03T05:55:16.019Z,3.25
2023-05-03T05:57:46.312Z,3.17
2023-05-03T06:00:19.260Z,3.13
2023-05-03T06:02:46.728Z,2.90
2023-05-03T06:05:18.279Z,3.03
2023-05-03T06:07:45.790Z,3.22
2023-05-03T06:10:13.167Z,2.95
2023-05-03T06:12:46.609Z,2.75
2023-05-03T06:15:18.799Z,3.20
2023-05-03T06:17:46.520Z,2.97
2023-05-03T06:20:13.809Z,3.60
2023-05-03T06:22:42.493Z,3.60
2023-05-03T06:25:15.074Z,3.38
2023-05-03T06:27:45.004Z,3.42
2023-05-03T06:30:12.925Z,3.67
2023-05-03T06:32:42.238Z,3.42
2023-05-03T06:35:10.151Z,4.35
2023-05-03T06:37:39.018Z,3.15
2023-05-03T06:40:07.618Z,3.40
2023-05-03T06:42:36.893Z,3.28
2023-05-03T06:45:10.984Z,3.00
2023-05-03T06:47:40.214Z,3.50
2023-05-03T06:50:08.064Z,3.50
2023-05-03T06:52:35.141Z,2.88
2023-05-03T06:55:02.044Z,3.28
2023-05-03T06:57:30.048Z,2.90
2023-05-03T06:59:57.019Z,3.20
2023-05-03T07:02:25.851Z,3.00
2023-05-03T07:04:52.862Z,3.58
2023-05-03T07:07:20.184Z,3.10
2023-05-03T07:09:47.206Z,3.00
2023-05-03T07:12:14.256Z,3.40
2023-05-03T07:14:41.418Z,3.38
2023-05-03T07:17:09.637Z,3.10
2023-05-03T07:19:37.585Z,3.63
2023-05-03T07:22:04.762Z,3.30
2023-05-03T07:24:31.625Z,3.50
2023-05-03T07:26:59.123Z,3.80
2023-05-03T07:29:27.599Z,3.57
2023-05-03T07:31:54.950Z,3.30
2023-05-03T07:34:22.281Z,3.08
2023-05-03T07:36:49.419Z,3.20
2023-05-03T07:39:17.468Z,3.13
2023-05-03T07:41:46.095Z,3.88
2023-05-03T07:44:12.944Z,3.20
2023-05-03T07:46:39.949Z,2.90
2023-05-03T07:49:07.075Z,2.70
2023-05-03T07:51:38.412Z,3.20
2023-05-03T07:54:06.361Z,3.85
2023-05-03T07:56:33.325Z,3.05
2023-05-03T07:59:09.213Z,3.45
2023-05-03T08:01:55.460Z,3.50
2023-05-03T08:04:24.338Z,3.60
2023-05-03T08:06:51.686Z,3.25
2023-05-03T08:09:19.500Z,3.88
2023-05-03T08:11:46.509Z,3.60
2023-05-03T08:14:13.689Z,3.65
2023-05-03T08:16:40.693Z,3.50
2023-05-03T08:19:08.251Z,3.28
2023-05-03T08:21:35.752Z,3.30
2023-05-03T08:24:06.028Z,3.22
2023-05-03T08:26:33.479Z,3.95
2023-05-03T08:29:00.896Z,3.97
2023-05-03T08:31:28.575Z,4.35
2023-05-03T08:33:55.520Z,4.18
2023-05-03T08:36:23.039Z,3.28
2023-05-03T08:38:50.634Z,3.60
2023-05-03T08:41:26.833Z,3.70
2023-05-03T08:43:56.278Z,3.50
2023-05-03T08:46:25.704Z,3.40
2023-05-03T08:48:54.469Z,3.33
2023-05-03T08:51:23.528Z,3.23
2023-05-03T08:53:51.061Z,3.25
2023-05-03T08:56:30.283Z,3.80
2023-05-03T08:58:58.224Z,2.95
2023-05-03T09:01:25.101Z,3.45
2023-05-03T09:03:52.547Z,3.42
2023-05-03T09:06:27.137Z,3.55
2023-05-03T09:08:55.459Z,3.70
2023-05-03T09:11:26.374Z,3.47
2023-05-03T09:13:54.039Z,3.35
2023-05-03T09:16:27.619Z,3.75
2023-05-03T09:18:58.585Z,3.97
2023-05-03T09:21:25.704Z,3.58
2023-05-03T09:23:52.773Z,3.60
2023-05-03T09:26:37.568Z,3.47
2023-05-03T09:29:05.461Z,3.38
2023-05-03T09:31:34.326Z,3.42
2023-05-03T09:34:01.975Z,3.30
2023-05-03T09:36:44.697Z,3.13
2023-05-03T09:39:19.828Z,3.53
2023-05-03T09:41:47.438Z,3.40
2023-05-03T09:44:14.327Z,3.90
2023-05-03T09:47:07.516Z,3.60
2023-05-03T09:49:36.991Z,3.58
2023-05-03T09:54:31.486Z,3.35
2023-05-03T09:56:59.209Z,3.35
2023-05-03T09:59:26.389Z,3.70
2023-05-03T10:01:58.892Z,3.15
2023-05-03T10:04:33.304Z,3.30
2023-05-03T10:07:07.908Z,3.67
2023-05-03T10:09:35.187Z,3.50
2023-05-03T10:12:05.102Z,3.58
2023-05-03T10:14:32.629Z,3.33
2023-05-03T10:17:17.048Z,3.40
2023-05-03T10:19:55.096Z,3.30
2023-05-03T10:22:22.121Z,3.10
2023-05-03T10:25:08.085Z,3.20
2023-05-03T10:27:43.272Z,2.92
2023-05-03T10:30:28.704Z,3.13
2023-05-03T10:32:56.188Z,3.42
2023-05-03T10:35:26.775Z,4.07
2023-05-03T10:37:54.568Z,3.95
2023-05-03T10:40:22.422Z,3.22
2023-05-03T10:42:55.177Z,3.50
2023-05-03T10:45:29.442Z,3.33
2023-05-03T10:48:11.643Z,3.30
2023-05-03T10:50:40.057Z,3.13
2023-05-03T10:53:07.362Z,2.88
2023-05-03T10:55:34.638Z,3.08
2023-05-03T10:58:03.518Z,3.20
2023-05-03T11:00:33.437Z,3.22
2023-05-03T11:03:18.629Z,3.25
2023-05-03T11:05:48.192Z,2.92
2023-05-03T11:08:18.923Z,3.10
2023-05-03T11:10:47.407Z,2.97
2023-05-03T11:13:15.515Z,4.07
2023-05-03T11:15:42.961Z,3.33
2023-05-03T11:18:13.847Z,3.70
2023-05-03T11:20:41.206Z,2.78
2023-05-03T11:23:08.181Z,2.97
2023-05-03T11:25:35.603Z,3.30
2023-05-03T11:28:04.292Z,2.80
2023-05-03T11:30:34.876Z,3.40
2023-05-03T11:33:02.684Z,3.20
2023-05-03T11:35:30.691Z,3.10
2023-05-03T11:37:59.253Z,3.10
2023-05-03T11:40:26.154Z,2.97
2023-05-03T11:42:59.003Z,3.35
2023-05-03T11:45:31.604Z,3.30
2023-05-03T11:47:59.534Z,3.13
2023-05-03T11:50:28.036Z,3.20
2023-05-03T11:52:56.020Z,2.72
2023-05-03T11:55:23.735Z,3.47
2023-05-03T11:57:51.259Z,2.90
2023-05-03T12:00:18.669Z,3.03
2023-05-03T12:02:48.599Z,2.92
2023-05-03T12:05:17.357Z,3.13
2023-05-03T12:07:45.106Z,3.10
2023-05-03T12:10:22.690Z,3.10
2023-05-03T12:12:57.603Z,3.53
2023-05-03T12:15:35.267Z,3.05
2023-05-03T12:18:09.664Z,3.28
2023-05-03T12:23:10.223Z,3.30
2023-05-03T12:25:39.495Z,2.80
2023-05-03T12:30:40.814Z,3.22
2023-05-03T12:33:10.019Z,3.22
2023-05-03T12:38:09.676Z,3.22
2023-05-03T12:43:04.638Z,3.30
2023-05-03T12:45:34.401Z,3.70
2023-05-03T12:48:03.096Z,3.20
2023-05-03T12:50:32.007Z,3.40
2023-05-03T12:53:02.634Z,3.58
2023-05-03T12:55:35.792Z,3.45
2023-05-03T12:58:38.098Z,3.30
2023-05-03T13:05:52.508Z,3.53
2023-05-03T13:08:21.715Z,3.35
2023-05-03T13:13:17.218Z,4.35
2023-05-03T13:15:44.357Z,3.92
2023-05-03T13:18:11.557Z,4.15
2023-05-03T13:20:39.313Z,4.55
2023-05-03T13:23:06.298Z,4.47
2023-05-03T13:25:33.590Z,4.28
2023-05-03T13:28:01.726Z,4.93
2023-05-03T13:30:29.217Z,4.22
2023-05-03T13:32:56.289Z,4.22
2023-05-03T13:35:23.371Z,4.00
2023-05-03T13:37:50.996Z,4.57
2023-05-03T13:40:18.216Z,4.82
2023-05-03T13:42:45.146Z,4.60
2023-05-03T13:45:13.589Z,5.25
2023-05-03T13:48:04.352Z,4.88
2023-05-03T13:50:31.316Z,6.68
2023-05-03T13:52:58.403Z,5.72
2023-05-03T13:55:26.923Z,5.80
2023-05-03T13:57:53.876Z,5.97
2023-05-03T14:00:20.962Z,5.80
2023-05-03T14:02:48.376Z,6.85
2023-05-03T14:05:15.445Z,7.20
2023-05-03T14:07:42.541Z,6.85
2023-05-03T14:10:10.885Z,6.85
2023-05-03T14:12:38.344Z,7.97
2023-05-03T14:15:08.631Z,8.15
2023-05-03T14:17:35.726Z,7.72
2023-05-03T14:20:02.965Z,9.13
2023-05-03T14:22:30.385Z,9.32
2023-05-03T14:24:57.363Z,9.00
2023-05-03T14:27:24.435Z,9.45
2023-05-03T14:29:51.468Z,9.32
2023-05-03T14:32:20.503Z,10.40
2023-05-03T14:34:47.381Z,9.68
2023-05-03T14:37:14.569Z,10.02
2023-05-03T14:39:41.619Z,8.95
2023-05-03T14:42:10.706Z,9.00
2023-05-03T14:44:37.721Z,8.75
2023-05-03T14:47:06.246Z,8.80
2023-05-03T14:49:40.362Z,9.07
2023-05-03T14:52:08.206Z,9.48
2023-05-03T14:54:36.434Z,10.05
2023-05-03T14:57:04.608Z,10.00
2023-05-03T14:59:33.532Z,10.32
2023-05-03T15:02:00.911Z,10.85
2023-05-03T15:04:29.152Z,9.77
2023-05-03T15:07:00.476Z,9.68
2023-05-03T15:09:28.438Z,9.02
2023-05-03T15:11:55.385Z,9.98
2023-05-03T15:14:22.926Z,12.02
2023-05-03T15:16:49.882Z,11.38
2023-05-03T15:19:16.861Z,9.75
2023-05-03T15:21:51.564Z,10.05
2023-05-03T15:24:18.643Z,11.07
2023-05-03T15:26:46.869Z,9.57
2023-05-03T15:29:15.358Z,9.67
2023-05-03T15:31:42.926Z,9.18
2023-05-03T15:34:12.239Z,8.80
2023-05-03T15:36:40.677Z,9.77
2023-05-03T15:39:09.217Z,9.70
2023-05-03T15:41:36.570Z,9.43
2023-05-03T15:44:05.378Z,9.07
2023-05-03T15:46:34.544Z,8.88
2023-05-03T15:49:01.923Z,8.40
2023-05-03T15:51:29.616Z,9.63
2023-05-03T15:53:56.488Z,9.38
2023-05-03T15:56:23.752Z,8.38
2023-05-03T15:58:50.997Z,8.80
2023-05-03T16:01:18.756Z,8.10
2023-05-03T16:03:46.316Z,9.43
2023-05-03T16:06:16.793Z,9.32
2023-05-03T16:08:44.112Z,9.10
2023-05-03T16:11:11.058Z,9.45
2023-05-03T16:13:39.526Z,8.85
2023-05-03T16:16:06.825Z,9.98
2023-05-03T16:18:34.061Z,9.15
2023-05-03T16:21:01.925Z,9.70
2023-05-03T16:23:29.153Z,9.30
2023-05-03T16:25:57.086Z,8.68
2023-05-03T16:28:24.145Z,9.23
2023-05-03T16:30:51.756Z,9.57
2023-05-03T16:33:19.513Z,10.73
2023-05-03T16:35:46.568Z,9.30
2023-05-03T16:38:13.743Z,9.60
2023-05-03T16:40:42.487Z,9.38
2023-05-03T16:43:10.278Z,8.07
2023-05-03T16:45:37.741Z,9.30
2023-05-03T16:48:06.801Z,8.38
2023-05-03T16:50:37.217Z,9.48
2023-05-03T16:53:04.273Z,8.52
2023-05-03T16:55:31.615Z,9.25
2023-05-03T16:57:58.578Z,8.55
2023-05-03T17:00:25.851Z,8.88
2023-05-03T17:02:53.005Z,8.77
2023-05-03T17:05:20.474Z,8.95
2023-05-03T17:07:47.495Z,8.85
2023-05-03T17:10:14.535Z,7.90
2023-05-03T17:12:41.547Z,8.77
2023-05-03T17:15:10.133Z,10.18
2023-05-03T17:17:37.250Z,10.57
2023-05-03T17:20:05.452Z,10.00
2023-05-03T17:22:32.820Z,8.43
2023-05-03T17:24:59.963Z,9.25
2023-05-03T17:27:26.941Z,8.90
2023-05-03T17:29:57.476Z,9.27
2023-05-03T17:32:24.689Z,9.82
2023-05-03T17:34:51.554Z,10.60
2023-05-03T17:37:18.593Z,10.68
2023-05-03T17:39:45.508Z,11.85
2023-05-03T17:42:13.672Z,12.43
2023-05-03T17:44:41.008Z,13.40
2023-05-03T17:47:08.179Z,13.43
2023-05-03T17:49:35.496Z,14.85
2023-05-03T17:52:04.263Z,14.20
2023-05-03T17:54:31.273Z,14.23
2023-05-03T17:56:58.929Z,14.60
2023-05-03T17:59:26.195Z,14.05
2023-05-03T18:01:53.311Z,14.80
2023-05-03T18:04:20.420Z,15.20
2023-05-03T18:06:47.541Z,15.27
2023-05-03T18:09:14.534Z,14.68
2023-05-03T18:11:44.818Z,14.65
2023-05-03T18:14:12.304Z,15.73
2023-05-03T18:16:39.472Z,14.75
2023-05-03T18:19:06.733Z,14.95
2023-05-03T18:21:35.492Z,14.93
2023-05-03T18:24:03.570Z,15.07
2023-05-03T18:26:31.168Z,15.75
2023-05-03T18:28:58.470Z,15.57
2023-05-03T18:31:25.497Z,15.63
2023-05-03T18:33:52.629Z,16.92
2023-05-03T18:36:19.504Z,15.75
2023-05-03T18:38:47.222Z,16.20
2023-05-03T18:41:15.927Z,16.17
2023-05-03T18:43:44.925Z,15.98
2023-05-03T18:46:17.381Z,16.58
2023-05-03T18:48:44.618Z,16.90
2023-05-03T18:51:11.800Z,15.85
2023-05-03T18:53:38.928Z,17.23
2023-05-03T18:56:06.011Z,16.70
2023-05-03T18:58:33.177Z,17.58
2023-05-03T19:01:00.474Z,17.48
2023-05-03T19:03:31.387Z,17.40
2023-05-03T19:06:07.654Z,15.82
2023-05-03T19:08:35.496Z,15.98
2023-05-03T19:11:10.188Z,17.00
2023-05-03T19:13:37.773Z,15.75
2023-05-03T19:16:05.380Z,17.17
2023-05-03T19:18:32.388Z,16.10
2023-05-03T19:20:59.370Z,15.60
2023-05-03T19:23:26.827Z,14.48
2023-05-03T19:25:53.845Z,14.55
2023-05-03T19:28:20.850Z,15.80
2023-05-03T19:30:51.548Z,14.95
2023-05-03T19:33:19.469Z,15.18
2023-05-03T19:35:46.518Z,15.68
2023-05-03T19:38:14.617Z,15.23
2023-05-03T19:40:41.657Z,14.55
2023-05-03T19:43:08.654Z,15.10
2023-05-03T19:45:42.448Z,16.52
2023-05-03T19:48:10.444Z,17.10
2023-05-03T19:50:37.639Z,15.43
2023-05-03T19:53:04.865Z,16.90
2023-05-03T19:55:31.770Z,17.90
2023-05-03T19:57:59.178Z,18.45
2023-05-03T20:00:29.662Z,18.00
2023-05-03T20:02:56.865Z,19.23
2023-05-03T20:05:23.996Z,18.45
2023-05-03T20:07:52.791Z,17.75
2023-05-03T20:10:19.898Z,18.95
2023-05-03T20:12:47.188Z,20.38
2023-05-03T20:15:14.183Z,19.65
2023-05-03T20:17:41.408Z,19.75
2023-05-03T20:20:12.376Z,20.52
2023-05-03T20:22:39.660Z,18.58
2023-05-03T20:25:07.203Z,19.05
2023-05-03T20:27:34.234Z,18.90
2023-05-03T20:30:01.717Z,19.52
2023-05-03T20:32:31.085Z,17.45
2023-05-03T20:34:57.997Z,17.38
2023-05-03T20:37:24.982Z,16.30
2023-05-03T20:39:52.466Z,15.25
2023-05-03T20:42:19.336Z,15.30
2023-05-03T20:44:46.633Z,14.30
2023-05-03T20:47:13.952Z,14.48
2023-05-03T20:49:40.983Z,15.18
2023-05-03T20:52:08.019Z,15.55
2023-05-03T20:54:36.214Z,14.00
2023-05-03T20:57:03.855Z,14.80
2023-05-03T20:59:30.922Z,19.17
2023-05-03T21:01:57.720Z,20.45
2023-05-03T21:04:25.475Z,16.10
2023-05-03T21:06:52.544Z,14.45
2023-05-03T21:09:19.892Z,13.05
2023-05-03T21:11:47.023Z,12.73
2023-05-03T21:14:14.457Z,13.02
2023-05-03T21:16:41.599Z,13.07
2023-05-03T21:19:08.589Z,11.88
2023-05-03T21:21:35.770Z,13.00
2023-05-03T21:24:02.854Z,11.63
2023-05-03T21:26:30.547Z,12.23
2023-05-03T21:28:57.763Z,11.68
2023-05-03T21:31:24.733Z,12.73
2023-05-03T21:33:51.646Z,12.18
2023-05-03T21:36:18.754Z,11.93
2023-05-03T21:38:45.715Z,12.40
2023-05-03T21:41:13.773Z,16.85
2023-05-03T21:43:40.633Z,13.32
2023-05-03T21:46:08.607Z,13.07
2023-05-03T21:48:37.391Z,12.15
2023-05-03T21:51:04.325Z,13.20
2023-05-03T21:53:31.601Z,12.30
2023-05-03T21:55:58.485Z,13.45
2023-05-03T21:58:26.092Z,13.63
2023-05-03T22:00:53.632Z,12.40
2023-05-03T22:03:22.004Z,12.07
2023-05-03T22:05:51.377Z,13.07
2023-05-03T22:08:18.666Z,12.30
2023-05-03T22:10:46.474Z,13.65
2023-05-03T22:13:13.737Z,12.68
2023-05-03T22:15:40.764Z,12.35
2023-05-03T22:18:08.123Z,11.88
2023-05-03T22:20:35.117Z,12.80
2023-05-03T22:23:02.621Z,12.90
2023-05-03T22:25:32.098Z,11.55
2023-05-03T22:27:59.701Z,12.32
2023-05-03T22:30:27.574Z,12.32
2023-05-03T22:32:54.590Z,12.40
2023-05-03T22:35:21.706Z,12.23
2023-05-03T22:37:48.819Z,11.82
2023-05-03T22:40:15.884Z,13.40
2023-05-03T22:42:43.008Z,13.23
2023-05-03T22:45:10.449Z,13.15
2023-05-03T22:47:38.006Z,13.77
2023-05-03T22:50:06.098Z,13.10
2023-05-03T22:52:33.419Z,14.00
2023-05-03T22:55:01.421Z,14.05
2023-05-03T22:57:29.360Z,14.38
2023-05-03T22:59:56.667Z,13.85
2023-05-03T23:02:23.721Z,15.05
2023-05-03T23:04:50.748Z,15.05
2023-05-03T23:07:18.163Z,13.63
2023-05-03T23:09:48.678Z,13.60
2023-05-03T23:12:15.771Z,13.60
2023-05-03T23:14:45.832Z,13.85
2023-05-03T23:17:13.178Z,13.55
2023-05-03T23:19:40.202Z,13.60
2023-05-03T23:22:07.615Z,13.65
2023-05-03T23:24:35.017Z,13.68
2023-05-03T23:27:02.459Z,13.85
2023-05-03T23:29:29.680Z,15.75
2023-05-03T23:31:57.325Z,15.43
2023-05-03T23:34:24.827Z,14.25
2023-05-03T23:36:51.820Z,14.73
2023-05-03T23:39:18.665Z,15.18
2023-05-03T23:41:45.699Z,15.02
2023-05-03T23:44:12.528Z,15.13
2023-05-03T23:46:39.693Z,15.60
2023-05-03T23:49:07.661Z,15.93
2023-05-03T23:51:34.769Z,15.73
2023-05-03T23:54:01.647Z,17.40
2023-05-03T23:56:28.760Z,17.48
2023-05-03T23:58:55.667Z,17.23
